Alder, Washington
Current Conditions -  °F | °C
As of 12:43 AM on Wednesday 26 Nov 2014 (Local Time) from KGRF Reporting Station
Drizzle Drizzle  
Wind Chill: 55°   Ceiling: 1300
Heat Index: 55°   Visibility: 10mi
Dew Point: 55°   Wind: 13mph
Humidity: 100%   Direction: 160°SSE
Pressure: 30.21"   Gusts: NA
Location:  46.8687°N, 122.208°W
Report Text: KGRF 260843Z AUTO 16011KT 10SM DZ SCT008 BKN013 BKN024 OVC030 13/13 A3021 RMK AO2 CIG 013V032 BKN013 V SCT
Loading
Personal Weather Stations






























Interactive Weather Map New forecast layout! Learn more

10-Day Weather Forecast

Advertisements
Track Severe Weather on mobile